Time;durP1;ratioP1;P1;durP2;ratioP2;P2;SDS_P1;SDS_P2;PMS_P1;PMS_P2;Temp;Humidity;BMP_temperature;BMP_pressure;BME280_temperature;BME280_humidity;BME280_pressure;Samples;Min_cycle;Max_cycle;Signal;HPM_P1;HPM_P2
2022/06/23 00:02:23;;;;;;;5.55;1.75;;;18.00;88.90;;;-144.05;41.46;125687.94;6186906;23;20013;-89
2022/06/23 00:04:55;;;;;;;5.10;1.67;;;18.00;90.00;;;-144.05;41.44;125687.94;6186964;23;20335;-87
2022/06/23 00:07:30;;;;;;;3.58;1.90;;;17.90;90.60;;;-144.05;41.99;125687.94;6186865;23;20019;-89
2022/06/23 00:10:23;;;;;;;5.10;1.95;;;17.90;91.80;;;-144.05;41.72;125687.94;6185785;23;20013;-88
2022/06/23 00:12:51;;;;;;;5.10;2.22;;;18.00;92.50;;;-144.05;41.74;125687.94;6186590;23;20013;-90
2022/06/23 00:15:41;;;;;;;3.05;1.70;;;17.90;93.30;;;-144.05;42.17;125687.94;6185336;23;20419;-89
2022/06/23 00:18:23;;;;;;;4.03;2.13;;;17.90;94.50;;;-144.05;42.49;125687.94;6184947;23;20034;-90
2022/06/23 00:21:01;;;;;;;5.10;1.63;;;17.70;95.90;;;-144.05;42.70;125687.94;6185364;23;20302;-90
2022/06/23 00:23:46;;;;;;;4.32;2.00;;;17.70;97.00;;;-144.05;42.70;125687.94;6184884;23;20008;-90
2022/06/23 00:26:26;;;;;;;4.03;1.95;;;17.60;98.40;;;-144.05;42.77;125687.94;6185257;23;20009;-89
2022/06/23 00:29:13;;;;;;;5.25;2.53;;;17.60;99.50;;;-144.05;43.17;125687.94;6186563;23;20523;-90
2022/06/23 00:31:53;;;;;;;7.57;2.33;;;17.50;99.90;;;-144.05;43.28;125687.94;6186456;23;20440;-93
2022/06/23 00:34:38;;;;;;;2.95;1.42;;;17.40;99.90;;;-144.05;43.60;125687.94;6186800;23;20052;-89
2022/06/23 00:37:14;;;;;;;3.78;1.95;;;17.40;99.90;;;-144.05;43.83;125687.94;6186615;23;20011;-90
2022/06/23 00:39:55;;;;;;;2.67;1.52;;;17.30;99.90;;;-144.05;44.16;125687.94;6186303;23;20491;-88
2022/06/23 00:42:32;;;;;;;3.67;2.25;;;17.20;99.90;;;-144.05;44.29;125687.94;6212724;23;20063;-88
2022/06/23 00:45:10;;;;;;;3.60;2.28;;;17.20;99.90;;;-144.05;44.17;125687.94;6188826;23;20009;-88
2022/06/23 00:48:23;;;;;;;3.22;2.00;;;17.30;99.90;;;-144.05;43.82;125687.94;6198535;23;20012;-84
2022/06/23 00:51:28;;;;;;;4.10;1.90;;;17.40;99.90;;;-144.05;43.97;125687.94;6204293;23;20024;-89
2022/06/23 00:54:36;;;;;;;4.47;1.65;;;17.40;99.90;;;-144.05;43.91;125687.94;6186448;23;20037;-89
2022/06/23 00:57:34;;;;;;;4.32;1.83;;;17.40;99.90;;;-144.05;44.24;125687.94;6185290;23;20408;-88
2022/06/23 01:00:36;;;;;;;4.00;1.90;;;17.30;99.90;;;-144.05;44.64;125687.94;6185732;23;20020;-87
2022/06/23 01:03:25;;;;;;;3.05;2.08;;;17.30;99.90;;;-144.05;44.77;125687.94;6185427;23;20016;-90
2022/06/23 01:06:28;;;;;;;5.28;2.15;;;17.30;99.90;;;-144.05;44.99;125687.94;6210300;23;20013;-87
2022/06/23 01:09:29;;;;;;;3.10;1.70;;;17.30;99.90;;;-144.05;45.76;125687.94;6162951;23;20096;-91
2022/06/23 01:12:17;;;;;;;3.55;1.80;;;17.20;99.90;;;-144.05;46.23;125687.94;6185372;23;20457;-90
2022/06/23 01:15:15;;;;;;;2.95;1.92;;;17.00;99.90;;;-144.05;46.69;125687.94;6185904;23;20339;-91
2022/06/23 01:18:02;;;;;;;3.28;2.08;;;16.90;99.90;;;-144.05;48.60;125687.94;6211061;23;20001;-89
2022/06/23 01:21:16;;;;;;;7.30;1.88;;;16.70;99.90;;;-144.05;50.04;125687.94;6185994;23;20013;-90
2022/06/23 01:24:23;;;;;;;3.72;2.20;;;16.30;99.90;;;-144.05;51.54;125687.94;6210429;23;20080;-90
2022/06/23 01:27:26;;;;;;;2.80;1.52;;;16.00;99.90;;;-144.05;52.43;125687.94;6184261;23;20009;-89
2022/06/23 01:30:06;;;;;;;4.82;2.22;;;15.90;99.90;;;-144.05;53.20;125687.94;6185390;23;20372;-87
2022/06/23 01:33:02;;;;;;;9.27;2.50;;;15.70;99.90;;;-144.05;53.55;125687.94;6185594;23;20001;-87
2022/06/23 01:35:40;;;;;;;4.47;2.15;;;15.60;99.90;;;-144.05;53.16;125687.94;6185377;23;20055;-91
2022/06/23 01:38:33;;;;;;;6.57;2.40;;;15.70;99.90;;;-144.05;52.48;125687.94;6185992;23;20012;-89
2022/06/23 01:41:19;;;;;;;5.82;2.05;;;15.80;99.90;;;-144.05;52.02;125687.94;6186119;23;20017;-90
2022/06/23 01:44:06;;;;;;;4.45;2.63;;;15.90;99.90;;;-144.05;51.70;125687.94;6187777;23;20009;-87
2022/06/23 01:46:41;;;;;;;4.78;2.72;;;16.00;99.90;;;-144.05;51.54;125687.94;6186067;23;20008;-86
2022/06/23 01:49:43;;;;;;;5.05;2.40;;;16.00;99.90;;;-144.05;51.45;125687.94;6186279;23;20013;-88
2022/06/23 01:52:18;;;;;;;6.78;2.25;;;16.10;99.90;;;-144.05;51.65;125687.94;6186471;23;20017;-90
2022/06/23 01:54:54;;;;;;;4.82;1.95;;;16.10;99.90;;;-144.05;52.32;125687.94;6186762;23;20009;-89
2022/06/23 01:58:07;;;;;;;4.00;2.40;;;15.90;99.90;;;-144.05;54.01;125687.94;6186439;23;20004;-88
2022/06/23 02:00:45;;;;;;;6.05;2.50;;;15.70;99.90;;;-144.05;55.77;125687.94;6186859;23;20004;-89
2022/06/23 02:03:40;;;;;;;6.43;2.58;;;15.40;99.90;;;-144.05;56.11;125687.94;6187089;23;20012;-90
2022/06/23 02:06:30;;;;;;;3.92;2.53;;;15.30;99.90;;;-144.05;56.06;125687.94;6186263;23;20015;-90
2022/06/23 02:09:56;;;;;;;;;;;;;;;;;;;;;
2022/06/23 02:12:57;;;;;;;6.70;3.17;;;15.30;99.90;;;-144.05;54.62;125687.94;6187862;23;20088;-90
2022/06/23 02:16:13;;;;;;;3.67;2.55;;;15.60;99.90;;;-144.05;53.53;125687.94;6186061;23;20001;-89
2022/06/23 02:18:59;;;;;;;5.55;2.50;;;15.80;99.90;;;-144.05;53.51;125687.94;6187279;23;20005;-89
2022/06/23 02:21:55;;;;;;;;;;;;;;;;;;;;;
2022/06/23 02:25:25;;;;;;;5.50;2.72;;;15.80;99.90;;;-144.05;54.08;125687.94;6188781;23;20036;-89
2022/06/23 02:28:32;;;;;;;8.88;2.50;;;15.70;99.90;;;-144.05;54.84;125687.94;6188550;23;20009;-91
2022/06/23 02:31:55;;;;;;;4.30;2.60;;;15.50;99.90;;;-144.05;56.30;125687.94;6188703;23;20032;-88
2022/06/23 02:34:49;;;;;;;5.07;2.47;;;15.40;99.90;;;-144.05;56.90;125687.94;6197403;23;20471;-91
2022/06/23 02:38:03;;;;;;;3.72;2.60;;;15.40;99.90;;;-144.05;58.16;125687.94;6189037;23;20012;-88
2022/06/23 02:40:51;;;;;;;3.08;2.10;;;15.10;99.90;;;-144.05;59.26;125687.94;6151651;23;20009;-89
2022/06/23 02:43:41;;;;;;;3.38;2.33;;;14.80;99.90;;;-144.05;60.26;125687.94;6189916;23;20013;-85
2022/06/23 02:46:39;;;;;;;4.80;2.88;;;14.60;99.90;;;-144.05;61.37;125687.94;6189934;23;20040;-88
2022/06/23 02:49:53;;;;;;;3.20;2.80;;;14.50;99.90;;;-144.05;62.05;125687.94;6188773;23;20383;-89
2022/06/23 02:52:46;;;;;;;7.38;2.50;;;14.20;99.90;;;-144.05;62.97;125687.94;6189099;23;20053;-94
2022/06/23 02:56:03;;;;;;;3.63;2.78;;;14.10;99.90;;;-144.05;63.31;125687.94;6209693;23;20020;-84
2022/06/23 02:59:02;;;;;;;3.95;2.70;;;14.00;99.90;;;-144.05;64.04;125687.94;6195760;23;20024;-88
2022/06/23 03:01:50;;;;;;;4.78;2.63;;;13.80;99.90;;;-144.05;64.94;125687.94;6190753;23;20025;-91
2022/06/23 03:04:29;;;;;;;4.68;2.72;;;13.70;99.90;;;-144.05;65.29;125687.94;6191341;23;20009;-90
2022/06/23 03:07:30;;;;;;;4.63;2.95;;;13.70;99.90;;;-144.05;66.08;125687.94;6190546;23;20005;-89
2022/06/23 03:10:16;;;;;;;5.50;2.83;;;13.60;99.90;;;-144.05;66.50;125687.94;6193396;23;20013;-91
2022/06/23 03:13:03;;;;;;;4.80;2.78;;;13.60;99.90;;;-144.05;66.60;125687.94;6199796;23;20032;-94
2022/06/23 03:15:53;;;;;;;4.97;2.72;;;13.50;99.90;;;-144.05;67.59;125687.94;6199528;23;20012;-90
2022/06/23 03:18:38;;;;;;;3.97;3.00;;;13.50;99.90;;;-144.05;67.57;125687.94;6186739;23;20015;-90
2022/06/23 03:21:39;;;;;;;4.22;2.97;;;13.50;99.90;;;-144.05;67.32;125687.94;6186791;23;20017;-89
2022/06/23 03:25:00;;;;;;;6.22;3.58;;;13.50;99.90;;;-144.05;67.71;125687.94;6170855;23;20020;-91
2022/06/23 03:28:01;;;;;;;4.90;3.22;;;13.50;99.90;;;-144.05;67.89;125687.94;6171911;23;20009;-87
2022/06/23 03:30:59;;;;;;;6.00;3.00;;;13.50;99.90;;;-144.05;68.99;125687.94;6191067;23;20351;-90
2022/06/23 03:33:44;;;;;;;6.78;3.63;;;13.60;99.90;;;-144.05;68.14;125687.94;6184802;23;20016;-88
2022/06/23 03:36:46;;;;;;;4.65;3.00;;;13.70;99.90;;;-144.05;67.98;125687.94;6185453;23;20012;-88
2022/06/23 03:42:40;;;;;;;4.88;3.00;;;13.80;99.90;;;-144.05;67.48;125687.94;6186905;23;20047;-89
2022/06/23 03:45:24;;;;;;;;;;;13.90;99.90;;;-144.05;68.17;125687.94;6185914;23;20153;-89
2022/06/23 03:48:05;;;;;;;4.97;3.45;;;13.80;99.90;;;-144.05;68.36;125687.94;6184861;23;19911;-89
2022/06/23 03:50:48;;;;;;;4.38;3.30;;;13.70;99.90;;;-144.05;68.89;125687.94;6210266;23;20443;-87
2022/06/23 03:53:43;;;;;;;4.03;3.03;;;13.70;99.90;;;-144.05;69.26;125687.94;6185273;23;20080;-90
2022/06/23 03:56:25;;;;;;;5.93;3.55;;;13.60;99.90;;;-144.05;70.00;125687.94;6185778;23;20036;-87
2022/06/23 03:59:13;;;;;;;6.93;3.90;;;13.60;99.90;;;-144.05;69.90;125687.94;6185560;23;20009;-88
2022/06/23 04:02:22;;;;;;;6.05;4.55;;;13.60;99.90;;;-144.05;70.17;125687.94;6186670;23;20071;-85
2022/06/23 04:05:06;;;;;;;8.50;4.13;;;13.70;99.90;;;-144.05;69.60;125687.94;6185787;23;20431;-89
2022/06/23 04:07:49;;;;;;;5.47;3.55;;;13.80;99.90;;;-144.05;69.24;125687.94;6185092;23;20371;-91
2022/06/23 04:10:38;;;;;;;6.30;3.40;;;14.00;99.90;;;-144.05;68.75;125687.94;6186718;23;20008;-91
2022/06/23 04:13:22;;;;;;;9.07;4.05;;;14.10;99.90;;;-144.05;68.12;125687.94;6187510;23;20005;-91
2022/06/23 04:16:00;;;;;;;6.47;4.05;;;14.30;99.90;;;-144.05;67.16;125687.94;6188675;23;19997;-89
2022/06/23 04:18:31;;;;;;;8.07;4.10;;;14.40;99.90;;;-144.05;66.56;125687.94;6187763;23;20027;-89
2022/06/23 04:21:31;;;;;;;5.75;4.38;;;14.50;99.90;;;-144.05;65.58;125687.94;6185986;23;20013;-88
2022/06/23 04:24:11;;;;;;;9.43;4.35;;;14.70;99.90;;;-144.05;64.38;125687.94;6187247;23;20005;-86
2022/06/23 04:26:46;;;;;;;7.78;4.13;;;14.90;99.90;;;-144.05;63.36;125687.94;6210155;23;20008;-87
2022/06/23 04:29:38;;;;;;;5.60;3.80;;;15.00;99.90;;;-144.05;62.76;125687.94;6186068;23;20016;-90
2022/06/23 04:32:15;;;;;;;8.75;4.47;;;15.20;99.90;;;-144.05;61.73;125687.94;6185020;23;20383;-88
2022/06/23 04:34:57;;;;;;;7.05;4.18;;;15.50;99.90;;;-144.05;60.65;125687.94;6185494;23;20092;-93
2022/06/23 04:38:16;;;;;;;8.43;4.05;;;15.60;99.90;;;-144.05;59.05;125687.94;6186058;23;20103;-90
2022/06/23 04:40:42;;;;;;;5.97;3.42;;;15.90;99.90;;;-144.05;57.54;125687.94;6186565;23;20009;-89
2022/06/23 04:43:44;;;;;;;6.10;3.45;;;16.20;99.90;;;-144.05;57.08;125687.94;6185953;23;20009;-88
2022/06/23 04:46:19;;;;;;;4.95;2.85;;;16.40;99.90;;;-144.05;56.01;125687.94;6185909;23;20015;-88
2022/06/23 04:49:36;;;;;;;6.78;2.80;;;16.70;99.90;;;-144.05;54.83;125687.94;6187870;23;20015;-89
2022/06/23 04:52:37;;;;;;;5.13;3.22;;;16.20;99.90;;;-144.05;53.72;125687.94;6186660;23;20434;-91
2022/06/23 04:55:06;;;;;;;4.40;2.58;;;17.20;99.90;;;-144.05;53.35;125687.94;6187575;23;20020;-91
2022/06/23 04:57:47;;;;;;;6.43;3.42;;;17.50;99.90;;;-144.05;53.06;125687.94;6188516;23;20092;-86
2022/06/23 05:00:50;;;;;;;6.00;3.28;;;17.70;99.90;;;-144.05;51.65;125687.94;6197191;23;20004;-87
2022/06/23 05:03:36;;;;;;;8.55;3.20;;;17.90;99.90;;;-144.05;50.74;125687.94;6192760;23;20017;-89
2022/06/23 05:06:37;;;;;;;5.28;2.83;;;18.10;99.90;;;-144.05;49.90;125687.94;6214057;23;20064;-89
2022/06/23 05:09:32;;;;;;;4.13;2.55;;;18.30;99.90;;;-144.05;49.51;125687.94;6187830;23;20008;-91
2022/06/23 05:12:15;;;;;;;4.07;2.55;;;18.50;99.90;;;-144.05;49.47;125687.94;6133946;23;20013;-91
2022/06/23 05:15:26;;;;;;;6.82;3.38;;;18.70;99.90;;;-144.05;48.99;125687.94;6134273;23;20009;-88
2022/06/23 05:18:09;;;;;;;4.00;3.33;;;19.00;99.90;;;-144.05;47.67;125687.94;6130911;23;20006;-89
2022/06/23 05:20:49;;;;;;;5.07;2.67;;;19.30;99.90;;;-144.05;47.68;125687.94;6134076;23;20045;-89
2022/06/23 05:23:42;;;;;;;3.83;2.70;;;19.50;99.90;;;-144.05;46.95;125687.94;6132983;23;20057;-89
2022/06/23 05:26:49;;;;;;;5.93;2.90;;;19.80;99.90;;;-144.05;45.12;125687.94;6133858;23;20432;-89
2022/06/23 05:29:57;;;;;;;4.65;2.90;;;20.10;99.90;;;-144.05;44.50;125687.94;6127929;23;20092;-86
2022/06/23 05:33:06;;;;;;;4.13;2.70;;;20.40;99.90;;;-144.05;43.99;125687.94;6134727;23;20006;-88
2022/06/23 05:35:48;;;;;;;7.55;2.70;;;20.70;99.90;;;-144.05;43.43;125687.94;6132056;23;20001;-89
2022/06/23 05:38:30;;;;;;;4.18;2.30;;;21.00;99.90;;;-144.05;42.84;125687.94;6132556;23;20012;-90
2022/06/23 05:41:29;;;;;;;4.70;2.17;;;21.40;99.90;;;-144.05;42.48;125687.94;6133240;23;20016;-89
2022/06/23 05:43:58;;;;;;;4.80;2.25;;;21.70;99.90;;;-144.05;41.49;125687.94;6133856;23;20080;-90
2022/06/23 05:46:31;;;;;;;3.70;2.33;;;22.00;99.90;;;-144.05;41.22;125687.94;6134736;23;20084;-87
2022/06/23 05:49:15;;;;;;;3.25;2.20;;;22.30;99.90;;;-144.05;40.19;125687.94;6134044;23;20041;-89
2022/06/23 05:52:05;;;;;;;3.50;2.03;;;22.50;99.90;;;-144.05;39.86;125687.94;6133461;23;20073;-90
2022/06/23 05:55:12;;;;;;;3.33;1.90;;;22.70;99.90;;;-144.05;39.54;125687.94;6133144;23;20452;-87
2022/06/23 05:58:35;;;;;;;2.88;2.30;;;23.00;99.90;;;-144.05;38.44;125687.94;6119988;23;20008;-87
2022/06/23 06:01:36;;;;;;;3.03;2.10;;;23.30;99.90;;;-144.05;38.38;125687.94;6133492;23;20028;-89
2022/06/23 06:04:31;;;;;;;5.55;2.45;;;23.60;99.90;;;-144.05;37.49;125687.94;6128145;23;20009;-88
2022/06/23 06:07:01;;;;;;;4.10;2.28;;;23.70;97.20;;;-144.05;37.40;125687.94;6132210;23;20006;-89
2022/06/23 06:09:40;;;;;;;5.63;2.25;;;24.00;96.80;;;-144.05;36.71;125687.94;6138329;23;20510;-86
2022/06/23 06:12:27;;;;;;;6.35;2.47;;;24.20;94.00;;;-144.05;37.44;125687.94;6186498;23;20068;-85
2022/06/23 06:15:25;;;;;;;9.15;2.97;;;24.50;95.70;;;-144.05;36.28;125687.94;6186390;23;20084;-88
2022/06/23 06:18:14;;;;;;;8.02;3.13;;;24.70;92.60;;;-144.05;35.78;125687.94;6188298;23;20020;-88
2022/06/23 06:20:40;;;;;;;5.30;2.33;;;24.60;90.80;;;-144.05;36.27;125687.94;6188604;23;20005;-90
2022/06/23 06:23:36;;;;;;;10.90;3.20;;;24.80;91.80;;;-144.05;35.91;125687.94;6188200;23;20021;-90
2022/06/23 06:26:05;;;;;;;5.85;2.50;;;25.00;90.70;;;-144.05;35.52;125687.94;6187867;23;20081;-89
2022/06/23 06:28:34;;;;;;;6.28;2.60;;;25.20;89.70;;;-144.05;35.16;125687.94;6187605;23;20313;-88
2022/06/23 06:31:40;;;;;;;7.28;2.53;;;25.40;87.10;;;-144.05;35.32;125687.94;6187597;23;20044;-90
2022/06/23 06:34:34;;;;;;;6.35;2.72;;;25.40;87.10;;;-144.05;34.62;125687.94;6188348;23;20016;-91
2022/06/23 06:37:00;;;;;;;4.88;2.88;;;25.40;83.90;;;-144.05;34.48;125687.94;6188097;23;20001;-88
2022/06/23 06:39:47;;;;;;;8.50;2.55;;;25.60;83.20;;;-144.05;34.28;125687.94;6189019;23;20032;-90
2022/06/23 06:42:44;;;;;;;8.15;2.60;;;25.70;81.30;;;-144.05;33.97;125687.94;6188927;23;20116;-90
2022/06/23 06:45:18;;;;;;;5.18;2.13;;;26.00;79.90;;;-144.05;34.64;125687.94;6189118;23;20019;-91
2022/06/23 06:47:53;;;;;;;6.60;2.47;;;26.10;82.70;;;-144.05;33.94;125687.94;6188015;23;20320;-89
2022/06/23 06:50:42;;;;;;;7.13;2.28;;;26.30;80.50;;;-144.05;33.86;125687.94;6188275;23;20041;-90
2022/06/23 06:53:48;;;;;;;7.45;2.30;;;26.50;79.70;;;-144.05;33.61;125687.94;6187905;23;20012;-91
2022/06/23 06:56:46;;;;;;;4.17;2.03;;;26.80;78.00;;;-144.05;31.90;125687.94;6187906;23;20131;-87
2022/06/23 06:59:30;;;;;;;6.43;2.30;;;27.30;72.10;;;-144.05;31.69;125687.94;6188617;23;20439;-86
2022/06/23 07:02:18;;;;;;;5.45;2.45;;;27.40;71.40;;;-144.05;31.62;125687.94;6188891;23;20009;-89
2022/06/23 07:05:04;;;;;;;4.85;2.17;;;27.60;69.40;;;-144.05;31.54;125687.94;6197477;23;20028;-83
2022/06/23 07:07:41;;;;;;;4.55;2.17;;;27.90;70.10;;;-144.05;31.27;125687.94;6210247;23;20005;-88
2022/06/23 07:10:36;;;;;;;8.20;2.58;;;28.20;68.90;;;-144.05;31.10;125687.94;6187449;23;20064;-90
2022/06/23 07:13:30;;;;;;;5.85;1.90;;;28.50;66.50;;;-144.05;30.80;125687.94;6186888;23;20012;-89
2022/06/23 07:16:17;;;;;;;6.97;2.08;;;28.70;65.90;;;-144.05;30.45;125687.94;6187276;23;20001;-85
2022/06/23 07:19:27;;;;;;;4.40;2.22;;;28.80;64.00;;;-144.05;30.47;125687.94;6186946;23;20008;-90
2022/06/23 07:22:20;;;;;;;5.30;1.90;;;29.00;64.20;;;-144.05;30.94;125687.94;6212108;23;20009;-89
2022/06/23 07:25:20;;;;;;;6.93;2.22;;;29.20;65.00;;;-144.05;30.07;125687.94;6185592;23;20025;-87
2022/06/23 07:28:09;;;;;;;4.85;2.33;;;29.50;63.00;;;-144.05;30.67;125687.94;6186267;23;20013;-87
2022/06/23 07:31:10;;;;;;;4.90;2.38;;;29.70;64.20;;;-144.05;30.15;125687.94;6186252;23;20103;-89
2022/06/23 07:33:54;;;;;;;5.22;2.05;;;29.70;61.80;;;-144.05;30.19;125687.94;6188148;23;20016;-90
2022/06/23 07:37:00;;;;;;;4.05;2.10;;;29.80;63.00;;;-144.05;31.12;125687.94;6214862;23;20055;-90
2022/06/23 07:39:38;;;;;;;6.25;1.77;;;29.80;62.80;;;-144.05;29.78;125687.94;6189626;23;20096;-91
2022/06/23 07:42:31;;;;;;;6.32;2.97;;;30.20;61.40;;;-144.05;29.65;125687.94;6188117;23;20004;-89
2022/06/23 07:45:21;;;;;;;4.88;2.33;;;30.30;61.00;;;-144.05;30.23;125687.94;6186052;23;20005;-88
2022/06/23 07:47:47;;;;;;;4.97;2.47;;;30.20;60.70;;;-144.05;30.49;125687.94;6187289;23;20024;-89
2022/06/23 07:50:17;;;;;;;4.78;2.20;;;30.20;62.80;;;-144.05;29.96;125687.94;6186744;23;20005;-88
2022/06/23 07:52:45;;;;;;;8.93;2.47;;;30.50;61.70;;;-144.05;29.89;125687.94;6186745;23;20001;-87
2022/06/23 07:55:32;;;;;;;4.88;2.50;;;30.40;61.00;;;-144.05;29.95;125687.94;6186503;23;20005;-89
2022/06/23 07:58:00;;;;;;;5.60;2.47;;;30.60;61.60;;;-144.05;29.36;125687.94;6187758;23;20013;-87
2022/06/23 08:00:33;;;;;;;6.43;2.28;;;30.90;59.50;;;-144.05;29.43;125687.94;6187202;23;20001;-89
2022/06/23 08:03:12;;;;;;;4.90;2.00;;;31.10;59.70;;;-144.05;29.24;125687.94;6186875;23;20013;-89
2022/06/23 08:05:49;;;;;;;7.30;2.30;;;31.10;58.50;;;-144.05;29.47;125687.94;6186232;23;20072;-90
2022/06/23 08:08:28;;;;;;;3.22;2.40;;;31.10;59.30;;;-144.05;29.16;125687.94;6184847;23;20582;-89
2022/06/23 08:13:59;;;;;;;5.82;2.20;;;31.30;58.90;;;-144.05;29.22;125687.94;6186985;23;20020;-86
2022/06/23 08:17:12;;;;;;;4.07;2.45;;;31.40;58.40;;;-144.05;29.19;125687.94;6186769;23;20048;-87
2022/06/23 08:20:02;;;;;;;5.78;2.60;;;31.60;58.60;;;-144.05;29.76;125687.94;6182821;23;20444;-89
2022/06/23 08:22:37;;;;;;;6.57;2.78;;;31.40;57.70;;;-144.05;29.41;125687.94;6181259;23;20009;-87
2022/06/23 08:25:07;;;;;;;6.72;2.70;;;31.30;58.40;;;-144.05;28.75;125687.94;6185103;23;20009;-89
2022/06/23 08:27:35;;;;;;;9.25;2.60;;;31.50;57.90;;;-144.05;28.89;125687.94;6185136;23;20012;-88
2022/06/23 08:30:17;;;;;;;7.60;2.25;;;31.60;57.80;;;-144.05;28.92;125687.94;6185607;23;20383;-88
2022/06/23 08:32:50;;;;;;;6.22;2.70;;;31.50;56.90;;;-144.05;28.98;125687.94;6185664;23;20391;-86
2022/06/23 08:35:47;;;;;;;3.08;2.22;;;32.30;58.40;;;-144.05;28.52;125687.94;6186171;23;20079;-87
2022/06/23 08:39:01;;;;;;;3.80;2.10;;;32.00;56.80;;;-144.05;29.09;125687.94;6185990;23;20316;-89
2022/06/23 08:42:21;;;;;;;4.80;2.28;;;31.90;55.60;;;-144.05;28.02;125687.94;6185779;23;20009;-86
2022/06/23 08:45:18;;;;;;;3.13;2.20;;;32.10;55.00;;;-144.05;27.42;125687.94;6187021;23;20005;-87
2022/06/23 08:48:02;;;;;;;4.05;2.63;;;32.30;53.70;;;-144.05;27.67;125687.94;6133020;23;20005;-90
2022/06/23 08:51:07;;;;;;;2.60;2.35;;;32.30;54.20;;;-144.05;27.82;125687.94;6186040;23;20009;-89
2022/06/23 08:54:23;;;;;;;3.53;2.28;;;32.40;53.80;;;-144.05;27.46;125687.94;6185960;23;20001;-89
2022/06/23 08:57:14;;;;;;;4.15;2.35;;;32.80;54.70;;;-144.05;27.15;125687.94;6185958;23;20394;-90
2022/06/23 08:59:54;;;;;;;4.70;2.22;;;32.70;53.20;;;-144.05;27.48;125687.94;6187289;23;20008;-88
2022/06/23 09:02:40;;;;;;;3.42;2.28;;;32.80;54.00;;;-144.05;26.56;125687.94;6187984;23;20005;-87
2022/06/23 09:05:37;;;;;;;3.65;2.03;;;32.90;51.60;;;-144.05;26.61;125687.94;6186733;23;20008;-91
2022/06/23 09:08:55;;;;;;;6.40;2.00;;;33.00;51.30;;;-144.05;27.07;125687.94;6187754;23;20040;-91
2022/06/23 09:12:06;;;;;;;6.60;2.38;;;33.10;52.20;;;-144.05;26.95;125687.94;6200665;23;20067;-82
2022/06/23 09:14:57;;;;;;;8.27;2.25;;;33.00;52.00;;;-144.05;26.67;125687.94;6198563;23;20029;-89
2022/06/23 09:17:47;;;;;;;5.45;1.95;;;33.20;51.50;;;-144.05;26.54;125687.94;6185119;23;20005;-86
2022/06/23 09:21:00;;;;;;;11.07;2.30;;;33.30;50.90;;;-144.05;26.73;125687.94;6184914;23;20387;-88
2022/06/23 09:24:43;;;;;;;5.35;2.20;;;33.30;50.30;;;-144.05;26.82;125687.94;6184790;23;20091;-88
2022/06/23 09:27:45;;;;;;;4.95;2.10;;;32.70;50.20;;;-144.05;26.48;125687.94;6185446;23;20008;-89
2022/06/23 09:30:55;;;;;;;4.68;2.03;;;33.10;51.60;;;-144.05;26.12;125687.94;6184739;23;20028;-89
2022/06/23 09:33:58;;;;;;;5.32;2.13;;;33.60;51.30;;;-144.05;26.01;125687.94;6186056;23;20013;-88
2022/06/23 09:37:17;;;;;;;2.92;1.85;;;33.60;49.40;;;-144.05;25.56;125687.94;6185133;23;20070;-87
2022/06/23 09:40:32;;;;;;;2.42;1.75;;;33.60;48.40;;;-144.05;25.50;125687.94;6184365;23;20012;-90
2022/06/23 09:43:48;;;;;;;3.00;1.95;;;33.50;48.70;;;-144.05;25.44;125687.94;6185296;23;20009;-88
2022/06/23 09:47:00;;;;;;;3.38;2.17;;;33.50;47.80;;;-144.05;24.91;125687.94;6184975;23;20005;-88
2022/06/23 09:50:07;;;;;;;3.38;1.98;;;33.70;47.40;;;-144.05;25.02;125687.94;6187128;23;20001;-88
2022/06/23 09:53:17;;;;;;;6.57;1.88;;;33.80;48.00;;;-144.05;24.53;125687.94;6190021;23;20304;-90
2022/06/23 09:56:27;;;;;;;3.05;2.20;;;33.90;46.40;;;-144.05;24.53;125687.94;6187539;23;20024;-88
2022/06/23 09:59:21;;;;;;;4.82;2.20;;;33.80;45.30;;;-144.05;24.46;125687.94;6189906;23;20009;-88
2022/06/23 10:03:12;;;;;;;3.22;1.98;;;33.60;44.70;;;-144.05;25.02;125687.94;6190746;23;20039;-91
2022/06/23 10:06:50;;;;;;;4.28;1.88;;;33.60;46.10;;;-144.05;25.84;125687.94;6187709;23;20377;-91
2022/06/23 10:09:53;;;;;;;3.85;2.10;;;33.40;46.70;;;-144.05;25.33;125687.94;6183390;23;20293;-89
2022/06/23 10:13:08;;;;;;;;;;;;;;;;;;;;;
2022/06/23 10:16:18;;;;;;;2.60;1.85;;;33.60;46.60;;;-144.05;25.37;125687.94;6160588;23;20040;-89
2022/06/23 10:19:26;;;;;;;5.78;2.30;;;33.10;46.70;;;-144.05;25.10;125687.94;6159905;23;20013;-90
2022/06/23 10:22:46;;;;;;;3.28;1.98;;;33.30;46.50;;;-144.05;24.91;125687.94;6132324;23;20001;-89
2022/06/23 10:26:04;;;;;;;3.53;1.85;;;33.50;46.70;;;-144.05;24.53;125687.94;6134142;23;20009;-85
2022/06/23 10:29:27;;;;;;;3.95;2.10;;;34.10;46.00;;;-144.05;24.14;125687.94;6134352;23;20386;-87
2022/06/23 10:32:17;;;;;;;3.25;1.58;;;34.50;45.20;;;-144.05;24.16;125687.94;6123335;23;20090;-90
2022/06/23 10:35:17;;;;;;;3.78;2.08;;;34.80;45.30;;;-144.05;24.39;125687.94;6135560;23;20092;-88
2022/06/23 10:38:35;;;;;;;3.72;1.92;;;34.70;44.10;;;-144.05;24.87;125687.94;6134818;23;20060;-90
2022/06/23 10:41:59;;;;;;;2.70;2.10;;;34.40;45.50;;;-144.05;24.54;125687.94;6135078;23;20017;-90
2022/06/23 10:45:13;;;;;;;5.18;1.80;;;34.10;44.40;;;-144.05;24.23;125687.94;6136558;23;20010;-87
2022/06/23 10:48:29;;;;;;;4.30;1.70;;;34.10;44.70;;;-144.05;23.90;125687.94;6162504;23;20001;-89
2022/06/23 10:54:59;;;;;;;3.47;2.03;;;34.50;43.30;;;-144.05;23.67;125687.94;6114991;23;20025;-88
2022/06/23 10:58:25;;;;;;;4.32;2.65;;;34.40;42.80;;;-144.05;24.05;125687.94;6136535;23;20044;-85
2022/06/23 11:01:37;;;;;;;4.60;2.03;;;34.40;44.80;;;-144.05;23.78;125687.94;6116898;23;20029;-90
2022/06/23 11:04:21;;;;;;;2.60;1.92;;;34.60;43.30;;;-144.05;23.67;125687.94;6133632;23;20396;-84
2022/06/23 11:07:24;;;;;;;4.43;1.60;;;34.80;43.00;;;-144.05;23.43;125687.94;6163524;23;20005;-85
2022/06/23 11:10:26;;;;;;;2.83;2.00;;;34.60;42.20;;;-144.05;23.84;125687.94;6153189;23;20009;-91
2022/06/23 11:13:57;;;;;;;3.60;2.10;;;34.80;44.30;;;-144.05;23.83;125687.94;6196523;23;20021;-85
2022/06/23 11:16:50;;;;;;;3.05;1.80;;;34.80;43.10;;;-144.05;23.33;125687.94;6203082;23;20016;-89
2022/06/23 11:20:33;;;;;;;5.78;1.92;;;34.90;42.40;;;-144.05;23.53;125687.94;6210023;23;20402;-90
2022/06/23 11:23:39;;;;;;;4.55;2.00;;;35.00;42.80;;;-144.05;23.48;125687.94;6190421;23;20017;-86
2022/06/23 11:30:46;;;;;;;4.20;2.17;;;34.90;42.00;;;-144.05;23.72;125687.94;6150896;23;20080;-90
2022/06/23 11:33:59;;;;;;;;;;;;;;;;;;;;;
2022/06/23 11:37:21;;;;;;;2.10;1.77;;;35.20;43.10;;;-144.05;24.13;125687.94;6190124;23;20043;-87
2022/06/23 11:40:02;;;;;;;3.67;1.98;;;35.00;41.80;;;-144.05;23.50;125687.94;6192024;23;20001;-88
2022/06/23 11:43:53;;;;;;;;;;;;;;;;;;;;;
2022/06/23 11:47:51;;;;;;;;;;;;;;;;;;;;;
2022/06/23 11:51:07;;;;;;;5.43;2.08;;;34.60;42.80;;;-144.05;23.64;125687.94;6155592;23;20039;-90
2022/06/23 11:54:16;;;;;;;3.33;1.92;;;34.80;42.90;;;-144.05;23.62;125687.94;6191723;23;20010;-88
2022/06/23 11:57:43;;;;;;;;;;;;;;;;;;;;;
2022/06/23 12:01:30;;;;;;;;;;;;;;;;;;;;;
2022/06/23 12:05:33;;;;;;;;;;;;;;;;;;;;;
2022/06/23 12:09:21;;;;;;;;;;;;;;;;;;;;;
2022/06/23 12:12:08;;;;;;;3.50;2.40;;;34.80;41.90;;;-144.05;23.85;125687.94;6187973;23;20073;-92
2022/06/23 12:14:45;;;;;;;2.70;1.88;;;35.00;42.80;;;-144.05;23.36;125687.94;6170218;23;20037;-84
2022/06/23 12:17:46;;;;;;;4.32;1.80;;;34.90;42.00;;;-144.05;23.92;125687.94;6190686;23;20092;-86
2022/06/23 12:20:55;;;;;;;4.25;2.15;;;34.70;42.20;;;-144.05;24.54;125687.94;6197082;23;20437;-89
2022/06/23 12:23:46;;;;;;;4.63;1.90;;;34.70;44.00;;;-144.05;24.25;125687.94;6214250;23;20039;-87
2022/06/23 12:26:37;;;;;;;2.65;2.25;;;34.50;43.50;;;-144.05;24.27;125687.94;6188646;23;20009;-92
2022/06/23 12:29:35;;;;;;;;;;;;;;;;;;;;;